Terminal Aerodrome Forecast
Issued by NWS

Home | Current Version | Previous Version | Text Only | Print | Product List | Glossary Off
Versions: 1 2 3 4 5 6 7 8 9 10 11 12 13 14 15 16 17 18 19 20

316
FTUS43 KICT 211035 AAB
TAFRSL
TAF AMD
KRSL 211035Z 2111/2206 13013KT P6SM OVC007
     FM211700 14017KT P6SM OVC013
     FM212300 14013KT P6SM OVC018
     FM220200 10009KT P6SM SCT025=

USA.gov is the U.S. government's official web portal to all federal, state and local government web resources and services.